This is the latest recevied weather packets stored in our database for station/object IW0REF-8. If no packets are shown the sender has not sent any weather packets the latest 10 day(s).
| Time | Temp. | Humidity | Pressure | Rain* | Wind** | Luminosity | Snow |
|---|---|---|---|---|---|---|---|
| 1777403505 | 17.22° C | 30% | 1018.2 hPa | - | - | - | - |
| 1777402605 | 17.78° C | 27% | 1017.5 hPa | - | - | - | - |
| 1777401705 | 17.78° C | 28% | 1017.6 hPa | - | - | - | - |
| 1777400805 | 18.33° C | 28% | 1017.6 hPa | - | - | - | - |
| 1777399905 | 18.89° C | 28% | 1017.2 hPa | - | - | - | - |
| 1777399005 | 21.11° C | 24% | 1016.4 hPa | - | - | - | - |
| 1777398105 | 22.78° C | 23% | 1015.9 hPa | - | - | - | - |
| 1777397205 | 23.33° C | 22% | 1015.7 hPa | - | - | - | - |
| 1777396305 | 23.89° C | 22% | 1015.6 hPa | - | - | - | - |
| 1777395405 | 24.44° C | 22% | 1015.5 hPa | - | - | - | - |
| 1777394500 | 25° C | 21% | 1015.2 hPa | - | - | - | - |
| 1777393600 | 25° C | 20% | 1015.1 hPa | - | - | - | - |
| 1777392700 | 25.56° C | 20% | 1015 hPa | - | - | - | - |
| 1777391800 | 25.56° C | 20% | 1015 hPa | - | - | - | - |
| 1777390900 | 24.44° C | 22% | 1015.1 hPa | - | - | - | - |
| 1777390000 | 25° C | 21% | 1015.2 hPa | - | - | - | - |
| 1777389100 | 23.89° C | 24% | 1015.7 hPa | - | - | - | - |
| 1777388199 | 25° C | 21% | 1015 hPa | - | - | - | - |
| 1777387299 | 25.56° C | 21% | 1014.9 hPa | - | - | - | - |
| 1777386399 | 26.11° C | 21% | 1015 hPa | - | - | - | - |
| 1777385499 | 26.67° C | 20% | 1015 hPa | - | - | - | - |
| 1777384599 | 26.11° C | 22% | 1015.6 hPa | - | - | - | - |
| 1777383699 | 26.11° C | 23% | 1015.7 hPa | - | - | - | - |
| 1777382799 | 25.56° C | 25% | 1016.4 hPa | - | - | - | - |
| 1777381899 | 26.11° C | 23% | 1016 hPa | - | - | - | - |
* Rain since midnight (hover to see other rain measurements)
** Current wind speed in m/s (hover to see current wind gust speed)